Time;durP1;ratioP1;P1;durP2;ratioP2;P2;SDS_P1;SDS_P2;PMS_P1;PMS_P2;Temp;Humidity;BMP_temperature;BMP_pressure;BME280_temperature;BME280_humidity;BME280_pressure;Samples;Min_cycle;Max_cycle;Signal;HPM_P1;HPM_P2
2022/05/07 00:01:11;;;;;;;11.32;9.70;;;15.00;93.30;;;;;;5015224;28;20049;-53
2022/05/07 00:03:36;;;;;;;12.63;10.23;;;15.00;93.30;;;;;;5016080;28;20044;-56
2022/05/07 00:06:02;;;;;;;14.52;10.38;;;15.00;93.40;;;;;;5015679;28;20042;-55
2022/05/07 00:08:28;;;;;;;12.20;10.68;;;15.00;93.40;;;;;;5015406;28;20636;-55
2022/05/07 00:10:53;;;;;;;10.85;9.60;;;15.00;93.60;;;;;;5014125;28;20030;-54
2022/05/07 00:13:19;;;;;;;10.95;9.85;;;14.90;93.70;;;;;;5014660;28;20049;-52
2022/05/07 00:18:01;;;;;;;14.43;10.88;;;14.90;93.70;;;;;;5014804;28;20041;-51
2022/05/07 00:18:30;;;;;;;12.85;11.10;;;14.80;93.60;;;;;;5017480;28;20038;-57
2022/05/07 00:20:55;;;;;;;13.10;11.68;;;14.40;93.60;;;;;;5013255;28;20041;-57
2022/05/07 00:23:21;;;;;;;12.38;11.07;;;14.20;94.50;;;;;;5014966;28;20389;-54
2022/05/07 00:25:46;;;;;;;11.75;10.52;;;14.10;95.40;;;;;;5014902;28;20386;-52
2022/05/07 00:28:12;;;;;;;13.60;11.13;;;14.10;95.60;;;;;;5012156;28;20415;-52
2022/05/07 00:30:37;;;;;;;12.95;11.18;;;14.20;95.40;;;;;;5013449;28;20504;-54
2022/05/07 00:33:03;;;;;;;11.82;10.73;;;14.30;95.30;;;;;;5014157;28;20030;-55
2022/05/07 00:35:28;;;;;;;15.70;11.68;;;14.20;95.30;;;;;;5017033;28;20026;-56
2022/05/07 00:37:54;;;;;;;11.95;10.63;;;14.10;95.80;;;;;;5012794;28;20034;-56
2022/05/07 00:40:19;;;;;;;12.30;10.45;;;14.10;96.50;;;;;;5013589;28;20030;-56
2022/05/07 00:42:45;;;;;;;12.38;10.55;;;14.10;96.70;;;;;;5011030;28;20165;-54
2022/05/07 00:45:10;;;;;;;12.00;10.63;;;14.10;96.60;;;;;;5011143;28;20026;-54
2022/05/07 00:47:38;;;;;;;11.13;9.93;;;14.10;96.60;;;;;;5011661;28;20068;-55
2022/05/07 00:52:49;;;;;;;12.63;11.10;;;14.10;96.60;;;;;;5013772;28;20034;-52
2022/05/07 00:55:15;;;;;;;12.77;11.45;;;14.10;96.70;;;;;;5014802;28;20041;-55
2022/05/07 00:57:41;;;;;;;13.05;11.20;;;14.10;96.80;;;;;;5008908;28;20030;-51
2022/05/07 01:00:09;;;;;;;16.67;12.25;;;14.10;96.80;;;;;;5014762;28;20061;-56
2022/05/07 01:02:36;;;;;;;11.95;10.73;;;14.10;96.80;;;;;;5012858;28;20402;-56
2022/05/07 01:05:02;;;;;;;12.85;11.20;;;14.10;96.80;;;;;;5013112;28;20014;-55
2022/05/07 01:07:28;;;;;;;11.25;10.15;;;14.10;97.00;;;;;;5012230;28;20030;-51
2022/05/07 01:09:54;;;;;;;13.90;10.25;;;14.10;97.00;;;;;;5011950;28;20041;-54
2022/05/07 01:12:19;;;;;;;13.95;10.82;;;14.00;97.20;;;;;;5012991;28;20062;-55
2022/05/07 01:14:45;;;;;;;11.48;9.85;;;14.00;97.30;;;;;;5014868;28;20084;-54
2022/05/07 01:17:10;;;;;;;12.32;10.00;;;14.00;97.50;;;;;;5033135;28;20045;-53
2022/05/07 01:19:36;;;;;;;11.20;10.10;;;14.00;97.50;;;;;;5015734;28;20064;-52
2022/05/07 01:22:03;;;;;;;10.57;9.27;;;14.00;97.70;;;;;;5013209;28;20030;-56
2022/05/07 01:24:28;;;;;;;11.70;10.50;;;14.10;97.60;;;;;;5013002;28;20056;-55
2022/05/07 01:26:54;;;;;;;11.27;10.10;;;14.10;97.40;;;;;;5011700;28;20128;-55
2022/05/07 01:29:19;;;;;;;10.43;9.32;;;14.20;97.40;;;;;;5012456;28;20037;-54
2022/05/07 01:31:45;;;;;;;11.50;10.13;;;14.20;97.50;;;;;;5013191;28;20064;-53
2022/05/07 01:34:10;;;;;;;12.48;10.45;;;14.20;97.50;;;;;;5013266;28;20046;-53
2022/05/07 01:36:36;;;;;;;13.35;10.80;;;14.20;97.60;;;;;;5012895;28;20392;-55
2022/05/07 01:39:02;;;;;;;11.52;10.38;;;14.20;97.70;;;;;;5013551;28;20076;-57
2022/05/07 01:41:30;;;;;;;11.57;10.23;;;14.20;97.80;;;;;;5012614;28;20068;-51
2022/05/07 01:43:55;;;;;;;12.25;10.82;;;14.10;98.00;;;;;;5012681;28;20549;-55
2022/05/07 01:49:05;;;;;;;12.13;10.68;;;13.90;98.10;;;;;;5013131;28;20026;-51
2022/05/07 01:51:30;;;;;;;12.15;10.68;;;13.90;98.10;;;;;;5012716;28;20379;-55
2022/05/07 01:53:56;;;;;;;13.57;10.98;;;13.90;97.90;;;;;;5012610;28;20510;-52
2022/05/07 01:56:21;;;;;;;13.77;10.43;;;13.80;97.90;;;;;;5012831;28;20064;-52
2022/05/07 01:58:48;;;;;;;10.82;9.70;;;13.80;97.30;;;;;;5013096;28;20418;-53
2022/05/07 02:01:14;;;;;;;13.25;10.65;;;13.70;96.90;;;;;;5012223;28;20101;-55
2022/05/07 02:03:39;;;;;;;12.65;9.85;;;13.70;96.60;;;;;;5011308;28;20026;-54
2022/05/07 02:06:05;;;;;;;34.97;27.13;;;13.60;96.80;;;;;;5011213;28;20088;-56
2022/05/07 02:08:31;;;;;;;51.85;36.42;;;13.60;96.80;;;;;;5011250;28;20037;-56
2022/05/07 02:10:59;;;;;;;27.55;18.65;;;13.60;97.10;;;;;;5011146;28;20030;-56
2022/05/07 02:13:25;;;;;;;16.30;11.82;;;13.60;97.10;;;;;;5011287;28;20041;-53
2022/05/07 02:15:51;;;;;;;14.10;10.43;;;13.60;97.70;;;;;;5011709;28;20026;-52
2022/05/07 02:18:16;;;;;;;11.02;9.93;;;13.50;97.40;;;;;;5011365;28;20486;-55
2022/05/07 02:20:42;;;;;;;13.13;10.10;;;13.50;96.80;;;;;;5012233;28;20053;-54
2022/05/07 02:23:08;;;;;;;12.05;10.40;;;13.50;96.70;;;;;;5010566;28;20034;-53
2022/05/07 02:25:33;;;;;;;12.95;9.75;;;13.50;97.30;;;;;;5011597;28;20062;-54
2022/05/07 02:27:59;;;;;;;11.52;9.65;;;13.50;97.50;;;;;;5008761;28;20121;-56
2022/05/07 02:30:25;;;;;;;12.63;10.25;;;13.70;97.40;;;;;;5003492;28;20065;-56
2022/05/07 02:32:50;;;;;;;12.05;10.18;;;13.70;97.10;;;;;;5011714;28;20066;-51
2022/05/07 02:35:16;;;;;;;13.18;9.82;;;13.80;97.10;;;;;;5011622;28;20045;-55
2022/05/07 02:37:41;;;;;;;13.43;10.45;;;13.90;97.20;;;;;;5011543;28;20108;-55
2022/05/07 02:40:08;;;;;;;11.35;9.77;;;13.90;97.40;;;;;;5011410;28;20038;-53
2022/05/07 02:42:34;;;;;;;13.88;10.60;;;13.80;97.80;;;;;;5014067;28;20040;-56
2022/05/07 02:45:04;;;;;;;11.60;10.15;;;13.80;98.30;;;;;;5031807;28;20116;-55
2022/05/07 02:47:30;;;;;;;12.80;10.65;;;13.80;98.20;;;;;;5031124;28;20030;-53
2022/05/07 02:49:55;;;;;;;14.23;9.93;;;13.80;98.20;;;;;;5028986;28;20033;-53
2022/05/07 02:52:21;;;;;;;11.70;10.57;;;13.80;98.00;;;;;;5010982;28;20103;-52
2022/05/07 02:54:47;;;;;;;11.00;9.48;;;13.80;97.30;;;;;;5012290;28;20516;-55
2022/05/07 02:57:12;;;;;;;13.00;10.20;;;13.80;97.00;;;;;;5015295;28;20064;-54
2022/05/07 02:59:38;;;;;;;12.63;9.73;;;13.70;96.80;;;;;;5015275;28;20041;-53
2022/05/07 03:02:05;;;;;;;10.98;9.50;;;13.70;96.60;;;;;;5015728;28;20512;-55
2022/05/07 03:04:30;;;;;;;12.65;9.38;;;13.60;97.30;;;;;;5015613;28;20367;-54
2022/05/07 03:06:56;;;;;;;11.32;10.13;;;13.60;98.20;;;;;;5016315;28;20037;-56
2022/05/07 03:09:21;;;;;;;11.77;9.77;;;13.70;98.20;;;;;;5017625;28;20032;-57
2022/05/07 03:11:47;;;;;;;13.40;10.45;;;13.60;98.20;;;;;;5017706;28;20581;-55
2022/05/07 03:14:13;;;;;;;12.95;10.45;;;13.60;98.50;;;;;;5016367;28;20037;-54
2022/05/07 03:16:38;;;;;;;11.45;10.25;;;13.50;98.80;;;;;;5016088;28;20062;-52
2022/05/07 03:19:05;;;;;;;11.25;10.05;;;13.60;99.10;;;;;;5015831;28;20038;-55
2022/05/07 03:21:30;;;;;;;10.82;9.68;;;13.60;99.30;;;;;;5012210;28;20026;-54
2022/05/07 03:23:56;;;;;;;11.05;9.82;;;13.50;99.50;;;;;;5015302;28;20034;-54
2022/05/07 03:26:22;;;;;;;11.75;9.93;;;13.50;99.40;;;;;;5015575;28;20036;-55
2022/05/07 03:28:48;;;;;;;10.90;9.52;;;13.50;99.40;;;;;;5006058;28;20057;-53
2022/05/07 03:31:13;;;;;;;10.88;9.68;;;13.40;99.60;;;;;;5013394;28;20543;-54
2022/05/07 03:33:39;;;;;;;10.63;9.52;;;13.40;99.70;;;;;;5014724;28;20057;-53
2022/05/07 03:36:05;;;;;;;10.25;9.05;;;13.50;99.60;;;;;;5015359;28;20521;-51
2022/05/07 03:38:31;;;;;;;10.80;9.70;;;13.60;99.60;;;;;;5014750;28;20164;-51
2022/05/07 03:40:56;;;;;;;10.77;9.13;;;13.60;99.50;;;;;;5015633;28;20105;-52
2022/05/07 03:43:22;;;;;;;10.70;8.68;;;13.60;99.50;;;;;;5014900;28;20106;-53
2022/05/07 03:45:48;;;;;;;11.77;9.80;;;13.70;99.50;;;;;;5014296;28;20512;-49
2022/05/07 03:48:13;;;;;;;9.73;8.70;;;13.70;99.20;;;;;;5015861;28;20065;-48
2022/05/07 03:50:39;;;;;;;11.57;10.30;;;13.70;99.10;;;;;;5015133;28;20093;-51
2022/05/07 03:55:48;;;;;;;11.10;9.38;;;13.60;99.40;;;;;;5014051;28;20037;-51
2022/05/07 03:58:17;;;;;;;11.05;9.32;;;13.60;99.20;;;;;;5014634;28;20047;-51
2022/05/07 04:00:45;;;;;;;11.68;9.25;;;13.50;98.70;;;;;;5015097;28;20523;-51
2022/05/07 04:03:14;;;;;;;13.07;8.88;;;13.40;98.50;;;;;;5014803;28;20053;-54
2022/05/07 04:05:40;;;;;;;13.18;8.73;;;13.40;97.90;;;;;;5015157;28;20040;-49
2022/05/07 04:08:06;;;;;;;9.52;8.52;;;13.40;97.80;;;;;;5014229;28;20489;-53
2022/05/07 04:10:32;;;;;;;11.02;9.13;;;13.50;97.50;;;;;;5015387;28;20030;-52
2022/05/07 04:12:58;;;;;;;9.27;8.27;;;13.50;97.90;;;;;;5014729;28;20030;-55
2022/05/07 04:15:23;;;;;;;13.07;10.20;;;13.50;97.80;;;;;;5014311;28;20042;-53
2022/05/07 04:17:49;;;;;;;10.40;9.32;;;13.50;98.20;;;;;;5015110;28;20045;-53
2022/05/07 04:20:15;;;;;;;10.40;9.30;;;13.50;98.60;;;;;;5016249;28;20482;-56
2022/05/07 04:22:41;;;;;;;10.77;9.68;;;13.50;98.60;;;;;;5015399;28;20091;-52
2022/05/07 04:25:08;;;;;;;10.68;9.50;;;13.20;98.90;;;;;;5016233;28;20109;-51
2022/05/07 04:27:34;;;;;;;14.88;10.00;;;13.00;99.50;;;;;;5013615;28;20037;-54
2022/05/07 04:29:59;;;;;;;10.25;9.15;;;12.90;99.70;;;;;;5010046;28;20054;-52
2022/05/07 04:32:28;;;;;;;10.32;9.20;;;12.90;99.60;;;;;;5015440;28;20038;-54
2022/05/07 04:34:55;;;;;;;12.27;9.57;;;12.90;99.50;;;;;;5014971;28;20037;-52
2022/05/07 04:37:24;;;;;;;10.63;8.95;;;13.00;99.30;;;;;;5015069;28;20471;-52
2022/05/07 04:39:50;;;;;;;9.90;8.95;;;13.00;98.80;;;;;;5014784;28;20022;-53
2022/05/07 04:42:16;;;;;;;12.48;9.80;;;13.10;98.60;;;;;;5015147;28;20356;-52
2022/05/07 04:44:42;;;;;;;10.35;9.15;;;13.10;98.40;;;;;;5015110;28;20048;-52
2022/05/07 04:47:08;;;;;;;10.10;8.82;;;13.10;98.80;;;;;;5014852;28;20034;-53
2022/05/07 04:49:35;;;;;;;12.27;9.32;;;13.20;98.80;;;;;;5014087;28;20410;-51
2022/05/07 04:52:01;;;;;;;12.95;8.95;;;13.30;98.40;;;;;;5015171;28;20026;-55
2022/05/07 04:54:26;;;;;;;9.52;8.63;;;13.30;98.50;;;;;;5014034;28;20044;-52
2022/05/07 04:56:53;;;;;;;10.52;9.15;;;13.40;98.40;;;;;;5014786;28;20041;-54
2022/05/07 04:59:20;;;;;;;10.38;8.55;;;13.50;98.10;;;;;;5013930;28;20044;-52
2022/05/07 05:01:46;;;;;;;10.75;8.35;;;13.50;98.00;;;;;;5013979;28;20557;-52
2022/05/07 05:04:12;;;;;;;10.15;9.05;;;13.60;97.90;;;;;;5014768;28;20513;-50
2022/05/07 05:06:38;;;;;;;13.88;9.02;;;13.70;97.60;;;;;;5014566;28;20030;-51
2022/05/07 05:09:06;;;;;;;10.55;9.43;;;13.80;97.30;;;;;;5013956;28;20435;-52
2022/05/07 05:11:35;;;;;;;10.77;9.20;;;13.80;97.00;;;;;;5014900;28;20076;-53
2022/05/07 05:14:01;;;;;;;10.77;9.18;;;13.90;96.70;;;;;;5014077;28;20379;-55
2022/05/07 05:16:27;;;;;;;11.73;8.15;;;13.80;97.00;;;;;;5012662;28;20045;-53
2022/05/07 05:18:53;;;;;;;12.45;9.10;;;13.90;97.00;;;;;;5014748;28;20084;-53
2022/05/07 05:21:19;;;;;;;10.48;8.65;;;14.00;97.00;;;;;;5014258;28;20030;-53
2022/05/07 05:23:46;;;;;;;11.80;8.90;;;13.90;97.10;;;;;;5014623;28;20049;-54
2022/05/07 05:26:13;;;;;;;13.43;11.05;;;13.90;97.20;;;;;;5013841;28;20030;-52
2022/05/07 05:28:40;;;;;;;12.50;9.65;;;14.00;97.20;;;;;;5013710;28;20022;-52
2022/05/07 05:31:06;;;;;;;12.27;9.45;;;14.00;97.10;;;;;;5013164;28;20041;-53
2022/05/07 05:33:32;;;;;;;17.17;10.00;;;14.10;97.00;;;;;;5013460;28;20087;-54
2022/05/07 05:35:58;;;;;;;10.00;8.95;;;14.10;97.00;;;;;;5014006;28;20390;-51
2022/05/07 05:38:24;;;;;;;10.63;9.02;;;14.20;97.00;;;;;;5014103;28;20123;-52
2022/05/07 05:40:50;;;;;;;11.23;7.85;;;14.30;96.90;;;;;;5015244;28;20041;-50
2022/05/07 05:43:15;;;;;;;10.30;9.18;;;14.30;96.70;;;;;;5014080;28;20397;-50
2022/05/07 05:45:41;;;;;;;12.30;9.60;;;14.40;96.50;;;;;;5014625;28;20450;-55
2022/05/07 05:48:07;;;;;;;11.27;9.20;;;14.50;96.50;;;;;;5013441;28;20518;-56
2022/05/07 05:50:35;;;;;;;11.52;9.63;;;14.50;96.60;;;;;;5013341;28;20041;-52
2022/05/07 05:53:01;;;;;;;11.15;9.57;;;14.40;96.80;;;;;;5012846;28;20501;-52
2022/05/07 05:55:27;;;;;;;13.82;10.38;;;14.20;97.40;;;;;;5013165;28;20044;-49
2022/05/07 05:57:52;;;;;;;12.45;9.18;;;14.20;97.70;;;;;;5012924;28;20044;-55
2022/05/07 06:00:18;;;;;;;12.50;8.95;;;14.30;97.30;;;;;;5013830;28;20037;-54
2022/05/07 06:02:44;;;;;;;9.90;8.98;;;14.40;97.00;;;;;;5012007;28;20121;-53
2022/05/07 06:05:15;;;;;;;11.30;9.60;;;14.40;97.10;;;;;;5011928;28;20052;-52
2022/05/07 06:07:41;;;;;;;9.95;8.93;;;14.40;97.30;;;;;;5012559;28;20375;-54
2022/05/07 06:10:06;;;;;;;12.80;9.15;;;14.40;97.50;;;;;;5012636;28;20041;-57
2022/05/07 06:12:33;;;;;;;9.90;8.90;;;14.40;97.80;;;;;;5013127;28;20041;-57
2022/05/07 06:14:58;;;;;;;10.35;9.35;;;14.60;97.30;;;;;;5012701;28;20038;-51
2022/05/07 06:17:25;;;;;;;12.77;9.73;;;14.60;97.30;;;;;;5012799;28;20524;-51
2022/05/07 06:19:51;;;;;;;12.40;9.25;;;14.70;97.20;;;;;;5009831;28;20030;-54
2022/05/07 06:22:17;;;;;;;11.45;8.70;;;14.80;96.90;;;;;;5013153;28;20026;-52
2022/05/07 06:27:33;;;;;;;10.93;9.32;;;14.90;96.90;;;;;;5013298;28;20030;-54
2022/05/07 06:30:00;;;;;;;11.43;9.40;;;14.90;96.70;;;;;;5008331;28;20056;-53
2022/05/07 06:32:36;;;;;;;15.02;9.90;;;15.00;96.80;;;;;;5011475;28;20041;-52
2022/05/07 06:35:05;;;;;;;10.55;8.73;;;15.10;96.50;;;;;;5011715;28;20037;-52
2022/05/07 06:37:36;;;;;;;12.48;10.25;;;15.30;96.30;;;;;;5011727;28;20383;-54
2022/05/07 06:40:04;;;;;;;12.65;9.80;;;15.40;96.00;;;;;;5010699;28;20064;-53
2022/05/07 06:42:29;;;;;;;10.13;8.90;;;15.50;95.60;;;;;;5011479;28;20028;-53
2022/05/07 06:44:55;;;;;;;13.90;9.52;;;15.60;95.40;;;;;;5025733;28;20030;-54
2022/05/07 06:47:21;;;;;;;13.05;9.05;;;15.60;95.50;;;;;;5031440;28;20733;-50
2022/05/07 06:49:46;;;;;;;10.00;8.80;;;15.70;95.60;;;;;;5012341;28;20038;-54
2022/05/07 06:52:12;;;;;;;10.95;9.45;;;15.80;95.20;;;;;;5011256;28;20038;-51
2022/05/07 06:54:38;;;;;;;10.40;8.20;;;15.80;95.20;;;;;;5012904;28;20045;-52
2022/05/07 06:57:04;;;;;;;14.52;8.55;;;15.80;94.90;;;;;;5010825;28;20188;-53
2022/05/07 06:59:31;;;;;;;10.38;8.73;;;15.90;94.60;;;;;;5013301;28;20034;-53
2022/05/07 07:01:57;;;;;;;9.02;7.95;;;16.00;94.60;;;;;;5011506;28;20026;-53
2022/05/07 07:04:23;;;;;;;11.05;8.55;;;16.10;94.40;;;;;;5009090;28;20528;-51
2022/05/07 07:06:50;;;;;;;12.52;9.52;;;16.20;94.10;;;;;;5011015;28;20038;-57
2022/05/07 07:09:16;;;;;;;12.93;8.88;;;16.40;94.10;;;;;;5010450;28;20073;-52
2022/05/07 07:11:41;;;;;;;8.38;7.38;;;16.50;93.40;;;;;;5008250;28;20046;-53
2022/05/07 07:14:07;;;;;;;9.07;7.72;;;16.30;93.00;;;;;;5011173;28;20037;-50
2022/05/07 07:16:33;;;;;;;10.15;7.95;;;16.40;93.50;;;;;;5011496;28;20405;-53
2022/05/07 07:18:58;;;;;;;9.98;9.02;;;16.50;93.40;;;;;;5008073;28;20026;-54
2022/05/07 07:21:24;;;;;;;13.05;8.48;;;16.60;92.90;;;;;;5010388;28;20018;-54
2022/05/07 07:23:49;;;;;;;11.73;8.68;;;16.60;93.10;;;;;;5007110;28;20033;-50
2022/05/07 07:26:15;;;;;;;10.10;8.35;;;16.80;93.10;;;;;;5012348;28;20033;-53
2022/05/07 07:28:40;;;;;;;9.23;8.05;;;16.90;93.00;;;;;;5010353;28;20030;-55
2022/05/07 07:31:08;;;;;;;11.90;8.30;;;17.00;93.20;;;;;;5018794;28;20482;-56
2022/05/07 07:33:34;;;;;;;13.20;9.10;;;17.10;93.10;;;;;;5012830;28;20117;-54
2022/05/07 07:36:00;;;;;;;13.25;8.55;;;17.20;92.70;;;;;;5009251;28;20128;-54
2022/05/07 07:38:26;;;;;;;11.73;8.32;;;17.30;92.70;;;;;;5014059;28;20123;-51
2022/05/07 07:40:53;;;;;;;9.38;8.48;;;17.40;92.40;;;;;;5012700;28;20041;-51
2022/05/07 07:43:20;;;;;;;11.63;8.48;;;17.40;92.30;;;;;;5013686;28;20088;-55
2022/05/07 07:48:31;;;;;;;9.65;8.30;;;17.30;92.00;;;;;;5015134;28;20026;-54
2022/05/07 07:50:56;;;;;;;9.93;7.95;;;17.30;91.50;;;;;;5015660;28;20486;-53
2022/05/07 07:53:24;;;;;;;9.35;8.38;;;17.40;92.10;;;;;;5015440;28;20038;-51
2022/05/07 07:55:50;;;;;;;12.13;8.63;;;17.60;92.10;;;;;;5015107;28;20116;-51
2022/05/07 07:58:15;;;;;;;10.90;9.13;;;17.90;92.10;;;;;;5014477;28;20076;-54
2022/05/07 08:00:44;;;;;;;9.98;8.80;;;18.00;91.90;;;;;;5014516;28;20030;-54
2022/05/07 08:03:20;;;;;;;9.63;8.13;;;18.00;92.10;;;;;;5014186;28;20462;-56
2022/05/07 08:05:51;;;;;;;11.07;9.15;;;17.90;92.30;;;;;;5015124;28;20026;-51
2022/05/07 08:13:48;;;;;;;8.02;7.03;;;18.20;91.20;;;;;;4994824;28;20102;-55
2022/05/07 08:16:17;;;;;;;9.10;7.40;;;18.30;90.50;;;;;;5002510;28;20421;-54
2022/05/07 08:18:43;;;;;;;8.68;6.93;;;18.40;90.80;;;;;;5015524;28;20476;-53
2022/05/07 08:21:10;;;;;;;7.75;6.93;;;18.30;88.70;;;;;;5011226;28;20446;-56
2022/05/07 08:23:36;;;;;;;11.73;7.30;;;18.50;89.60;;;;;;5012541;28;20076;-53
2022/05/07 08:26:04;;;;;;;8.68;7.70;;;18.60;89.60;;;;;;5014985;28;20033;-52
2022/05/07 08:28:30;;;;;;;6.95;6.35;;;18.50;88.00;;;;;;5009948;28;20045;-54
2022/05/07 08:30:56;;;;;;;10.05;7.10;;;18.70;89.00;;;;;;5015803;28;20045;-55
2022/05/07 08:33:22;;;;;;;11.25;7.18;;;18.80;87.40;;;;;;5015172;28;20053;-55
2022/05/07 08:35:48;;;;;;;8.43;6.25;;;18.90;87.60;;;;;;5014945;28;20124;-55
2022/05/07 08:38:14;;;;;;;8.38;5.65;;;19.10;86.50;;;;;;5015248;28;20120;-55
2022/05/07 08:40:40;;;;;;;6.65;5.93;;;19.10;86.20;;;;;;5015212;28;20038;-52
2022/05/07 08:43:06;;;;;;;6.43;5.80;;;19.20;85.00;;;;;;5015707;28;20038;-50
2022/05/07 08:45:32;;;;;;;6.97;6.05;;;19.30;83.00;;;;;;5014809;28;20036;-52
2022/05/07 08:47:59;;;;;;;6.20;5.60;;;19.30;82.80;;;;;;5017705;28;20387;-57
2022/05/07 08:50:26;;;;;;;8.80;5.60;;;19.40;83.00;;;;;;5014324;28;20041;-49
2022/05/07 08:52:53;;;;;;;7.45;5.35;;;19.60;82.90;;;;;;5013709;28;20564;-57
2022/05/07 08:55:20;;;;;;;8.07;5.65;;;19.70;82.40;;;;;;5015783;28;20191;-50
2022/05/07 08:57:47;;;;;;;11.18;5.63;;;19.80;81.70;;;;;;5015688;28;20030;-49
2022/05/07 09:00:15;;;;;;;10.93;4.95;;;19.70;77.60;;;;;;5012199;28;20096;-52
2022/05/07 09:02:48;;;;;;;7.80;5.28;;;19.60;76.70;;;;;;5014299;28;20502;-54
2022/05/07 09:05:16;;;;;;;6.65;5.07;;;19.60;79.00;;;;;;5014062;28;20099;-54
2022/05/07 09:07:52;;;;;;;6.20;4.80;;;19.70;77.80;;;;;;5015284;28;20030;-55
2022/05/07 09:10:19;;;;;;;7.22;5.28;;;20.00;78.80;;;;;;5013817;28;20037;-49
2022/05/07 09:12:45;;;;;;;6.05;4.22;;;20.10;77.00;;;;;;5014565;28;20037;-52
2022/05/07 09:15:11;;;;;;;8.32;3.88;;;19.90;74.50;;;;;;5014324;28;20486;-52
2022/05/07 09:17:37;;;;;;;6.45;4.15;;;20.20;74.80;;;;;;5014484;28;20037;-53
2022/05/07 09:20:21;;;;;;;6.50;4.53;;;20.30;75.60;;;;;;5012243;28;20042;-58
2022/05/07 09:22:55;;;;;;;9.20;4.28;;;20.40;74.70;;;;;;5012242;28;20038;-52
2022/05/07 09:25:25;;;;;;;9.20;4.80;;;20.30;76.10;;;;;;5023858;28;20037;-52
2022/05/07 09:27:52;;;;;;;12.30;6.20;;;20.50;75.30;;;;;;5032430;28;20116;-50
2022/05/07 09:30:25;;;;;;;7.57;5.45;;;20.40;76.30;;;;;;5021026;28;20109;-53
2022/05/07 09:32:53;;;;;;;7.43;5.13;;;20.60;76.30;;;;;;5014436;28;20046;-52
2022/05/07 09:38:05;;;;;;;9.20;5.07;;;20.90;73.60;;;;;;5013421;28;20029;-56
2022/05/07 09:40:32;;;;;;;8.50;5.50;;;20.90;73.40;;;;;;5013564;28;20041;-55
2022/05/07 09:42:58;;;;;;;8.07;4.97;;;20.90;73.70;;;;;;5013804;28;20046;-49
2022/05/07 09:45:27;;;;;;;8.10;4.78;;;20.80;73.00;;;;;;5016562;28;20028;-53
2022/05/07 09:48:00;;;;;;;6.35;4.22;;;21.10;72.20;;;;;;5017696;28;20045;-56
2022/05/07 09:58:45;;;;;;;6.68;4.60;;;21.30;70.40;;;;;;5013263;28;20061;-50
2022/05/07 10:01:43;;;;;;;6.80;5.75;;;21.40;69.60;;;;;;5014139;28;20088;-53
2022/05/07 10:04:43;;;;;;;7.93;6.43;;;21.20;69.60;;;;;;4993745;28;20022;-53
2022/05/07 10:07:34;;;;;;;7.47;5.60;;;21.30;68.50;;;;;;5011060;28;20501;-50
2022/05/07 10:10:12;;;;;;;6.38;5.10;;;21.60;69.40;;;;;;5011871;28;20037;-50
2022/05/07 10:12:42;;;;;;;7.70;5.82;;;21.90;68.70;;;;;;5022002;28;20032;-53
2022/05/07 10:15:09;;;;;;;6.65;5.20;;;21.80;68.00;;;;;;5013145;28;20037;-56
2022/05/07 10:17:35;;;;;;;6.50;4.63;;;22.10;68.10;;;;;;5011494;28;20125;-52
2022/05/07 10:20:06;;;;;;;7.25;4.70;;;22.10;68.70;;;;;;5016744;28;20026;-54
2022/05/07 10:22:32;;;;;;;6.32;4.97;;;22.30;67.90;;;;;;5017830;28;20033;-54
2022/05/07 10:25:05;;;;;;;8.40;5.13;;;22.10;68.80;;;;;;5014119;28;20022;-54
2022/05/07 10:27:33;;;;;;;6.97;5.30;;;21.80;68.70;;;;;;5017821;28;20026;-54
2022/05/07 10:30:05;;;;;;;8.80;4.65;;;21.60;68.40;;;;;;5001275;28;20036;-53
2022/05/07 10:32:45;;;;;;;6.88;5.30;;;21.60;68.80;;;;;;5013057;28;20092;-54
2022/05/07 10:35:11;;;;;;;7.43;6.63;;;21.80;67.60;;;;;;5004813;28;20045;-54
2022/05/07 10:37:41;;;;;;;8.30;5.25;;;21.80;68.10;;;;;;5027650;28;20041;-50
2022/05/07 10:40:11;;;;;;;6.95;4.85;;;22.00;68.00;;;;;;5018511;28;20030;-52
2022/05/07 10:42:40;;;;;;;6.53;5.10;;;22.20;67.20;;;;;;5012878;28;20041;-54
2022/05/07 10:45:21;;;;;;;6.40;5.38;;;22.10;66.60;;;;;;5013854;28;20026;-53
2022/05/07 10:47:57;;;;;;;8.45;4.57;;;22.10;65.60;;;;;;4990248;28;20499;-55
2022/05/07 10:50:23;;;;;;;8.20;5.38;;;21.90;66.90;;;;;;5009039;28;20037;-50
2022/05/07 10:52:56;;;;;;;5.70;4.70;;;21.80;67.20;;;;;;5031925;28;20025;-49
2022/05/07 10:55:26;;;;;;;7.63;5.18;;;21.90;66.50;;;;;;5031346;28;20216;-54
2022/05/07 10:57:55;;;;;;;7.25;4.80;;;21.90;65.30;;;;;;5031734;28;20029;-55
2022/05/07 11:00:22;;;;;;;7.22;5.07;;;21.80;65.30;;;;;;5015136;28;20025;-53
2022/05/07 11:02:50;;;;;;;7.22;5.22;;;21.70;66.30;;;;;;5032639;28;20036;-52
2022/05/07 11:05:16;;;;;;;6.03;4.65;;;21.60;66.20;;;;;;5020458;28;20026;-54
2022/05/07 11:07:43;;;;;;;5.32;4.55;;;21.50;66.40;;;;;;5011405;28;20235;-53
2022/05/07 11:10:10;;;;;;;7.47;5.05;;;21.50;65.60;;;;;;5011094;28;20037;-53
2022/05/07 11:12:36;;;;;;;7.05;4.80;;;21.50;64.70;;;;;;5018299;28;20049;-54
2022/05/07 11:15:03;;;;;;;6.53;4.40;;;21.50;64.90;;;;;;5032708;28;20045;-51
2022/05/07 11:17:35;;;;;;;6.47;5.22;;;21.60;65.00;;;;;;5021341;28;20053;-55
2022/05/07 11:20:01;;;;;;;6.43;4.50;;;21.70;65.10;;;;;;5015963;28;20032;-49
2022/05/07 11:22:30;;;;;;;5.10;4.15;;;21.80;65.90;;;;;;5014887;28;20037;-54
2022/05/07 11:25:01;;;;;;;5.72;4.68;;;21.80;65.60;;;;;;5015508;28;20026;-54
2022/05/07 11:27:33;;;;;;;6.68;5.13;;;21.70;65.70;;;;;;5013556;28;20026;-54
2022/05/07 11:30:01;;;;;;;7.28;5.32;;;21.70;65.90;;;;;;5014318;28;20033;-53
2022/05/07 11:32:38;;;;;;;7.72;5.35;;;21.80;65.60;;;;;;5012154;28;20084;-56
2022/05/07 11:35:03;;;;;;;6.10;4.85;;;22.30;64.80;;;;;;5015369;28;20685;-55
2022/05/07 11:37:43;;;;;;;9.45;5.88;;;22.70;64.20;;;;;;5015543;28;20026;-54
2022/05/07 11:40:12;;;;;;;7.80;4.82;;;22.70;65.40;;;;;;5015879;28;20026;-51
2022/05/07 11:42:46;;;;;;;7.57;4.72;;;22.60;64.60;;;;;;5024462;28;20026;-51
2022/05/07 11:45:26;;;;;;;7.60;5.43;;;22.50;63.90;;;;;;5016042;28;20110;-55
2022/05/07 11:48:11;;;;;;;6.38;5.10;;;22.40;63.50;;;;;;5015786;28;20324;-54
2022/05/07 11:50:41;;;;;;;6.47;4.93;;;22.30;63.00;;;;;;5016478;28;20037;-51
2022/05/07 11:53:22;;;;;;;7.05;5.07;;;22.00;63.40;;;;;;5016019;28;20564;-51
2022/05/07 11:55:50;;;;;;;6.53;4.63;;;22.30;63.50;;;;;;5013083;28;20058;-51
2022/05/07 11:58:23;;;;;;;7.32;5.30;;;22.60;63.10;;;;;;5014544;28;20042;-53
2022/05/07 12:00:55;;;;;;;8.27;5.03;;;23.00;62.50;;;;;;5015032;28;20397;-49
2022/05/07 12:03:26;;;;;;;5.72;4.85;;;23.30;61.90;;;;;;5015404;28;20061;-52
2022/05/07 12:05:53;;;;;;;5.30;4.80;;;23.50;60.80;;;;;;5014526;28;20100;-51
2022/05/07 12:08:23;;;;;;;8.98;4.65;;;23.40;60.90;;;;;;5015628;28;20033;-52
2022/05/07 12:10:50;;;;;;;5.63;4.40;;;23.40;61.00;;;;;;5015042;28;20088;-51
2022/05/07 12:13:17;;;;;;;7.13;4.32;;;23.60;61.10;;;;;;5015667;28;20045;-54
2022/05/07 12:18:28;;;;;;;6.68;4.35;;;23.30;61.00;;;;;;5014373;28;20030;-52
2022/05/07 12:20:54;;;;;;;7.53;4.93;;;23.40;61.80;;;;;;5013665;28;20494;-51
2022/05/07 12:31:34;;;;;;;;;;;22.60;61.80;;;;;;5015269;28;20041;-55
2022/05/07 12:34:00;;;;;;;6.45;4.60;;;22.50;62.10;;;;;;5015011;28;19918;-54
2022/05/07 12:36:29;;;;;;;4.90;4.00;;;22.40;62.50;;;;;;5022878;28;20037;-53
2022/05/07 12:38:59;;;;;;;6.88;4.15;;;22.30;62.90;;;;;;5033154;28;20025;-54
2022/05/07 12:41:29;;;;;;;5.90;4.40;;;22.60;62.30;;;;;;5023627;28;20086;-52
2022/05/07 12:43:54;;;;;;;6.80;4.50;;;23.10;61.30;;;;;;5012142;28;20109;-52
2022/05/07 12:46:20;;;;;;;8.65;4.60;;;23.50;60.80;;;;;;5022431;28;20076;-55
2022/05/07 12:48:47;;;;;;;6.72;4.72;;;23.90;60.30;;;;;;5033518;28;20309;-51
2022/05/07 12:51:13;;;;;;;8.07;4.88;;;24.00;60.30;;;;;;5026924;28;20030;-52
2022/05/07 12:53:39;;;;;;;6.22;4.00;;;24.30;60.10;;;;;;5013192;28;20133;-50
2022/05/07 12:56:05;;;;;;;8.40;4.47;;;24.60;60.20;;;;;;5012420;28;20175;-53
2022/05/07 12:58:30;;;;;;;7.90;4.53;;;24.40;60.40;;;;;;5014611;28;20058;-52
2022/05/07 13:00:56;;;;;;;5.65;4.13;;;24.30;61.70;;;;;;5014352;28;20448;-52
2022/05/07 13:03:22;;;;;;;6.95;5.40;;;24.40;61.50;;;;;;5015178;28;20069;-50
2022/05/07 13:05:48;;;;;;;5.18;4.28;;;25.00;58.20;;;;;;5014061;28;20045;-54
2022/05/07 13:08:14;;;;;;;5.38;4.30;;;25.20;57.90;;;;;;5013875;28;20077;-56
2022/05/07 13:10:40;;;;;;;7.05;4.20;;;25.20;57.90;;;;;;5013196;28;20606;-49
2022/05/07 13:13:06;;;;;;;6.97;4.88;;;24.80;59.50;;;;;;5013297;28;20442;-51
2022/05/07 13:15:32;;;;;;;6.25;4.45;;;24.90;59.00;;;;;;5013739;28;20030;-55
2022/05/07 13:17:59;;;;;;;5.45;4.38;;;25.10;58.60;;;;;;5013285;28;20038;-53
2022/05/07 13:20:28;;;;;;;6.28;5.13;;;24.90;59.00;;;;;;5011844;28;20030;-53